Terminal Aerodrome Forecast
Issued by NWS

Home | Current Version | Previous Version | Text Only | Print | Product List | Glossary Off
Versions: 1 2 3 4 5 6 7 8 9 10 11 12 13 14 15 16 17 18

055
FTUS43 KUNR 222320
TAFGCC
TAF
KGCC 222320Z 2300/2324 04008KT P6SM VCSH BKN070 OVC150
     FM230200 04006KT P6SM BKN150
     FM230900 36007KT P6SM -SHRA OVC035
     FM231300 35009KT 2SM -SHRA OVC015
     FM232000 35015KT 1/2SM -SHRA OVC003=

USA.gov is the U.S. government's official web portal to all federal, state and local government web resources and services.